Time;durP1;ratioP1;P1;durP2;ratioP2;P2;SDS_P1;SDS_P2;PMS_P1;PMS_P2;Temp;Humidity;BMP_temperature;BMP_pressure;BME280_temperature;BME280_humidity;BME280_pressure;Samples;Min_cycle;Max_cycle;Signal;HPM_P1;HPM_P2
2023/08/07 00:01:53;;;;;;;5.18;2.83;;;;;;;15.08;86.80;100404.78;4911975;29;19926;-83
2023/08/07 00:04:19;;;;;;;;;;;;;;;15.05;84.67;100400.81;4906856;29;20414;-81
2023/08/07 00:06:44;;;;;;;4.95;1.80;;;;;;;15.08;84.71;100399.38;4895747;29;19919;-81
2023/08/07 00:09:09;;;;;;;;;;;;;;;15.08;86.56;100404.78;4903770;29;20055;-80
2023/08/07 00:11:35;;;;;;;3.67;1.73;;;;;;;15.06;85.78;100401.59;4907842;29;19915;-82
2023/08/07 00:14:00;;;;;;;;;;;;;;;15.06;86.35;100396.22;4912760;29;20038;-81
2023/08/07 00:16:27;;;;;;;5.85;2.10;;;;;;;15.02;85.87;100402.22;4924716;29;20165;-79
2023/08/07 00:18:55;;;;;;;;;;;;;;;15.00;87.14;100399.03;4899410;29;20470;-80
2023/08/07 00:21:24;;;;;;;3.28;2.28;;;;;;;14.94;87.35;100400.25;4907219;29;19919;-79
2023/08/07 00:23:50;;;;;;;9.10;2.38;;;;;;;14.86;86.33;100403.69;4892973;29;20098;-81
2023/08/07 00:26:16;;;;;;;3.58;2.28;;;;;;;14.85;87.05;100401.31;4905382;29;20447;-80
2023/08/07 00:28:42;;;;;;;5.30;2.58;;;;;;;14.79;86.21;100392.53;4887953;29;20093;-77
2023/08/07 00:31:08;;;;;;;6.60;2.65;;;;;;;14.79;86.09;100397.13;4903252;29;20064;-81
2023/08/07 00:33:34;;;;;;;;;;;;;;;14.77;87.38;100402.00;4900816;29;20086;-81
2023/08/07 00:36:00;;;;;;;3.97;2.50;;;;;;;14.70;87.01;100405.16;4894242;29;19914;-79
2023/08/07 00:38:25;;;;;;;;;;;;;;;14.63;84.64;100400.19;4905502;29;20138;-79
2023/08/07 00:40:53;;;;;;;7.05;2.38;;;;;;;14.66;85.78;100398.78;4909345;29;19915;-79
2023/08/07 00:43:19;;;;;;;;;;;;;;;14.65;84.41;100406.06;4908831;29;20039;-81
2023/08/07 00:45:47;;;;;;;2.97;1.65;;;;;;;14.65;85.09;100407.97;4890769;29;19925;-80
2023/08/07 00:48:16;;;;;;;4.07;1.98;;;;;;;14.62;85.11;100414.75;4882741;29;20049;-80
2023/08/07 00:50:42;;;;;;;4.18;1.70;;;;;;;14.61;84.97;100412.34;4895790;29;20032;-80
2023/08/07 00:53:08;;;;;;;6.15;2.50;;;;;;;14.62;85.90;100409.34;4893429;29;20031;-80
2023/08/07 00:55:35;;;;;;;5.05;1.70;;;;;;;14.65;85.57;100408.75;4910842;29;20149;-82
2023/08/07 00:58:01;;;;;;;4.13;2.25;;;;;;;14.64;85.24;100401.00;4908017;29;20032;-80
2023/08/07 01:00:28;;;;;;;;;;;;;;;14.64;85.17;100401.78;4926534;29;20072;-82
2023/08/07 01:02:56;;;;;;;4.57;2.25;;;;;;;14.64;85.81;100406.38;4890001;29;19923;-84
2023/08/07 01:05:24;;;;;;;3.70;1.60;;;;;;;14.64;85.43;100399.09;4894877;29;20135;-84
2023/08/07 01:07:54;;;;;;;4.65;1.85;;;;;;;14.66;85.35;100404.16;4915436;29;20044;-83
2023/08/07 01:10:45;;;;;;;4.00;1.90;;;;;;;14.67;84.95;100411.16;4905654;29;20107;-86
2023/08/07 01:13:19;;;;;;;3.97;2.00;;;;;;;14.72;84.51;100402.94;4895559;29;20485;-82
2023/08/07 01:15:50;;;;;;;3.95;1.55;;;;;;;14.71;86.15;100404.06;4910519;29;20119;-84
2023/08/07 01:18:17;;;;;;;3.72;2.10;;;;;;;14.67;85.98;100395.78;4905860;29;20040;-80
2023/08/07 01:20:43;;;;;;;3.20;1.58;;;;;;;14.70;84.56;100394.38;4907117;29;20040;-82
2023/08/07 01:23:08;;;;;;;;;;;;;;;14.72;85.60;100392.16;4893901;29;20506;-84
2023/08/07 01:25:37;;;;;;;2.83;1.73;;;;;;;14.68;85.72;100391.16;4877533;29;19926;-84
2023/08/07 01:28:28;;;;;;;6.78;3.00;;;;;;;14.66;86.25;100380.69;4909713;29;20501;-82
2023/08/07 01:30:58;;;;;;;5.50;1.63;;;;;;;14.63;86.74;100388.59;4908136;29;20032;-83
2023/08/07 01:33:32;;;;;;;4.05;1.80;;;;;;;14.57;87.06;100385.25;4910164;29;20120;-83
2023/08/07 01:36:05;;;;;;;3.28;1.95;;;;;;;14.53;87.28;100384.25;4907311;29;20032;-83
2023/08/07 01:38:31;;;;;;;3.78;1.98;;;;;;;14.52;87.69;100376.47;4911491;29;20052;-84
2023/08/07 01:40:58;;;;;;;3.28;1.65;;;;;;;14.48;87.94;100384.34;4910954;29;20036;-84
2023/08/07 01:43:24;;;;;;;3.10;1.60;;;;;;;14.47;88.14;100385.47;4910458;29;20095;-83
2023/08/07 01:45:49;;;;;;;;;;;;;;;14.44;88.90;100378.75;4909798;29;20107;-84
2023/08/07 01:48:15;;;;;;;6.38;1.83;;;;;;;14.41;88.67;100376.66;4895827;29;19923;-84
2023/08/07 01:50:40;;;;;;;;;;;;;;;14.38;89.52;100377.28;4909194;29;20406;-82
2023/08/07 01:53:07;;;;;;;5.60;2.25;;;;;;;14.33;89.50;100380.06;4909456;29;19922;-82
2023/08/07 01:55:33;;;;;;;;;;;;;;;14.34;89.53;100370.88;4895882;29;20035;-81
2023/08/07 01:57:59;;;;;;;4.13;2.60;;;;;;;14.30;89.59;100377.19;4896566;29;19997;-77
2023/08/07 02:00:24;;;;;;;;;;;;;;;14.29;89.64;100373.69;4900457;29;20387;-81
2023/08/07 02:02:50;;;;;;;3.58;2.00;;;;;;;14.25;90.07;100371.91;4922382;29;20005;-83
2023/08/07 02:05:16;;;;;;;;;;;;;;;14.22;90.57;100367.91;4913107;29;20518;-82
2023/08/07 02:07:42;;;;;;;5.15;2.10;;;;;;;14.17;90.47;100368.84;4908834;29;19919;-82
2023/08/07 02:10:08;;;;;;;4.10;2.20;;;;;;;14.14;90.55;100376.72;4914237;29;20126;-82
2023/08/07 02:12:35;;;;;;;6.20;2.28;;;;;;;14.12;91.02;100382.41;4895467;29;20068;-81
2023/08/07 02:15:02;;;;;;;7.90;2.42;;;;;;;14.10;90.88;100381.94;4911532;29;20417;-83
2023/08/07 02:17:38;;;;;;;4.70;2.33;;;;;;;14.10;90.64;100373.06;4894053;29;20276;-81
2023/08/07 02:20:05;;;;;;;5.63;2.70;;;;;;;14.10;91.11;100378.44;4882936;29;20036;-83
2023/08/07 02:22:31;;;;;;;3.85;1.80;;;;;;;14.08;91.18;100365.25;4898240;29;20072;-83
2023/08/07 02:24:57;;;;;;;3.33;2.28;;;;;;;14.06;91.36;100364.75;4911783;29;20035;-84
2023/08/07 02:27:23;;;;;;;;;;;;;;;14.05;91.25;100362.38;4912800;29;20084;-84
2023/08/07 02:29:50;;;;;;;5.50;2.50;;;;;;;14.01;91.61;100364.06;4908927;29;20292;-82
2023/08/07 02:32:17;;;;;;;6.63;2.22;;;;;;;14.00;91.55;100365.97;4907743;29;20040;-83
2023/08/07 02:34:45;;;;;;;7.50;2.30;;;;;;;14.00;92.18;100365.97;4891727;29;20071;-83
2023/08/07 02:37:10;;;;;;;4.60;2.15;;;;;;;13.98;92.04;100367.38;4892182;29;20048;-83
2023/08/07 02:39:36;;;;;;;;;;;;;;;13.98;92.13;100370.06;4892184;29;20049;-81
2023/08/07 02:42:01;;;;;;;3.65;2.33;;;;;;;13.97;91.97;100355.03;4892998;29;19915;-80
2023/08/07 02:44:28;;;;;;;3.53;2.38;;;;;;;14.00;91.70;100370.56;4910075;29;20043;-81
2023/08/07 02:46:54;;;;;;;3.92;2.10;;;;;;;13.98;91.67;100360.09;4912105;29;20032;-85
2023/08/07 02:49:20;;;;;;;;;;;;;;;13.97;91.64;100360.41;4910893;29;20431;-84
2023/08/07 02:51:45;;;;;;;6.68;2.00;;;;;;;13.96;91.69;100375.75;4910945;29;19922;-81
2023/08/07 02:54:11;;;;;;;;;;;;;;;13.98;92.12;100373.56;4907272;29;20035;-85
2023/08/07 02:56:36;;;;;;;4.18;1.80;;;;;;;13.95;92.23;100374.16;4906889;29;19922;-83
2023/08/07 02:59:02;;;;;;;;;;;;;;;13.96;92.37;100366.88;4915058;29;20032;-84
2023/08/07 03:01:28;;;;;;;4.50;2.00;;;;;;;13.93;91.92;100360.19;4927262;29;19914;-86
2023/08/07 03:06:46;;;;;;;5.78;1.67;;;;;;;13.90;91.77;100361.59;5297700;23;20044;-81
2023/08/07 03:09:12;;;;;;;3.42;1.42;;;;;;;13.94;91.02;100364.47;4941054;28;20047;-81
2023/08/07 03:11:38;;;;;;;3.92;1.52;;;;;;;14.01;91.33;100367.56;4941336;29;20052;-80
2023/08/07 03:16:40;;;;;;;3.75;1.40;;;;;;;13.92;90.98;100362.09;4973689;28;19929;-81
2023/08/07 03:19:06;;;;;;;4.55;1.52;;;;;;;13.99;90.68;100374.34;5098361;23;20054;-81
2023/08/07 03:24:10;;;;;;;4.70;2.00;;;;;;;13.99;90.70;100375.16;5068883;23;20055;-81
2023/08/07 03:26:41;;;;;;;4.18;1.60;;;;;;;14.05;90.78;100370.47;4923695;29;20027;-82
2023/08/07 03:29:14;;;;;;;5.13;2.38;;;;;;;14.05;91.11;100373.94;5887245;23;20029;-79
2023/08/07 03:31:39;;;;;;;2.88;1.48;;;;;;;14.01;91.08;100361.38;4929453;29;20028;-80
2023/08/07 03:34:06;;;;;;;3.10;1.45;;;;;;;13.98;90.56;100364.69;4946655;29;20035;-80
2023/08/07 03:36:32;;;;;;;4.28;1.60;;;;;;;14.03;90.77;100369.97;4931628;29;20109;-78
2023/08/07 03:38:59;;;;;;;4.50;1.50;;;;;;;14.03;90.51;100369.97;4948554;29;20124;-81
2023/08/07 03:41:25;;;;;;;;;;;;;;;14.07;90.96;100365.56;4921826;29;20560;-81
2023/08/07 03:43:51;;;;;;;3.70;1.67;;;;;;;14.03;90.89;100361.91;4927293;29;19919;-78
2023/08/07 03:46:17;;;;;;;;;;;;;;;14.14;90.57;100374.81;4925939;29;20635;-80
2023/08/07 03:48:43;;;;;;;3.60;1.55;;;;;;;14.11;90.78;100361.19;4930417;29;19921;-79
2023/08/07 03:51:10;;;;;;;4.55;1.80;;;;;;;14.17;90.02;100357.28;4933865;29;20095;-81
2023/08/07 03:53:43;;;;;;;3.65;1.80;;;;;;;14.21;90.50;100367.13;4919501;29;20060;-81
2023/08/07 03:56:10;;;;;;;7.18;1.60;;;;;;;14.23;90.85;100361.47;4942603;29;20047;-81
2023/08/07 03:58:36;;;;;;;3.92;1.52;;;;;;;14.25;91.27;100371.91;4954869;28;20043;-80
2023/08/07 04:01:02;;;;;;;5.05;1.60;;;;;;;14.18;90.76;100366.94;4936734;29;20046;-81
2023/08/07 04:03:29;;;;;;;5.72;1.67;;;;;;;14.24;91.00;100365.75;4922878;29;20040;-81
2023/08/07 04:05:55;;;;;;;4.10;2.60;;;;;;;14.23;90.93;100364.16;5142164;23;20070;-80
2023/08/07 04:08:22;;;;;;;3.22;1.70;;;;;;;14.21;91.29;100355.56;4918296;29;20047;-81
2023/08/07 04:10:59;;;;;;;4.40;1.70;;;;;;;14.19;90.67;100352.38;4929229;29;20698;-79
2023/08/07 04:13:27;;;;;;;4.13;1.70;;;;;;;14.26;90.97;100360.03;4918309;29;20043;-80
2023/08/07 04:15:53;;;;;;;3.58;1.70;;;;;;;14.26;90.95;100357.34;4909714;29;20052;-80
2023/08/07 04:18:19;;;;;;;;;;;;;;;14.29;91.40;100365.59;4903732;29;20051;-80
2023/08/07 04:20:56;;;;;;;3.90;1.60;;;;;;;14.23;91.02;100353.38;4913708;29;19989;-78
2023/08/07 04:23:23;;;;;;;4.95;1.92;;;;;;;14.24;90.76;100352.28;4905114;29;21359;-79
2023/08/07 04:25:49;;;;;;;4.88;1.58;;;;;;;14.29;90.99;100352.13;4896325;29;20037;-80
2023/08/07 04:28:16;;;;;;;7.53;1.80;;;;;;;14.27;91.50;100354.34;4902626;29;20028;-80
2023/08/07 04:30:43;;;;;;;5.18;1.77;;;;;;;14.27;91.22;100359.72;4934951;29;20046;-81
2023/08/07 04:33:08;;;;;;;3.35;1.73;;;;;;;14.25;91.72;100361.94;4899425;29;20036;-81
2023/08/07 04:35:34;;;;;;;;;;;;;;;14.33;91.63;100363.91;4925442;29;20115;-81
2023/08/07 04:38:02;;;;;;;3.03;1.73;;;;;;;14.31;91.79;100370.72;4915186;29;19942;-81
2023/08/07 04:40:28;;;;;;;4.20;1.65;;;;;;;14.28;92.14;100372.09;4912241;29;20040;-81
2023/08/07 04:42:54;;;;;;;4.75;2.20;;;;;;;14.26;92.09;100368.91;4888634;29;20051;-81
2023/08/07 04:45:20;;;;;;;5.65;1.98;;;;;;;14.33;92.07;100380.06;4921565;29;20032;-80
2023/08/07 04:47:45;;;;;;;;;;;;;;;14.39;92.28;100383.47;4914508;29;20051;-81
2023/08/07 04:50:11;;;;;;;5.03;1.60;;;;;;;14.34;91.95;100378.19;4920348;29;19915;-80
2023/08/07 04:52:37;;;;;;;;;;;;;;;14.40;92.65;100393.91;4904864;29;20044;-79
2023/08/07 04:55:04;;;;;;;4.82;2.13;;;;;;;14.40;92.47;100387.75;4916332;29;20388;-78
2023/08/07 04:57:30;;;;;;;5.20;2.10;;;;;;;14.35;92.82;100377.06;4907499;29;20065;-80
2023/08/07 04:59:56;;;;;;;;;;;;;;;14.42;92.56;100377.44;4929053;29;20036;-80
2023/08/07 05:02:21;;;;;;;2.78;1.90;;;;;;;14.37;92.65;100374.88;4912432;29;19982;-82
2023/08/07 05:04:47;;;;;;;;;;;;;;;14.42;91.87;100389.03;4934580;29;20040;-82
2023/08/07 05:07:13;;;;;;;4.97;1.70;;;;;;;14.42;91.58;100383.63;4915005;29;19943;-81
2023/08/07 05:09:38;;;;;;;;;;;;;;;14.44;92.14;100386.84;4915347;29;20088;-82
2023/08/07 05:12:06;;;;;;;3.40;2.03;;;;;;;14.44;92.32;100378.75;4903493;29;19962;-81
2023/08/07 05:14:32;;;;;;;5.45;1.70;;;;;;;14.47;92.74;100375.47;4919756;29;20026;-80
2023/08/07 05:17:01;;;;;;;5.20;2.20;;;;;;;14.50;93.22;100384.06;4915586;29;20040;-80
2023/08/07 05:19:27;;;;;;;4.55;2.17;;;;;;;14.53;93.93;100378.84;4912153;29;20047;-79
2023/08/07 05:21:53;;;;;;;;;;;;;;;14.57;93.85;100379.06;4910953;29;20036;-80
2023/08/07 05:24:19;;;;;;;4.57;1.92;;;;;;;14.54;92.85;100376.94;4926803;28;20400;-80
2023/08/07 05:26:44;;;;;;;6.07;2.00;;;;;;;14.60;92.54;100367.66;4897808;29;20097;-78
2023/08/07 05:29:10;;;;;;;;;;;;;;;14.64;93.03;100374.03;4914675;29;20047;-80
2023/08/07 05:31:37;;;;;;;4.78;2.00;;;;;;;14.61;92.62;100369.25;4899769;29;19926;-80
2023/08/07 05:34:02;;;;;;;7.10;2.15;;;;;;;14.65;92.65;100362.16;4888854;29;20147;-79
2023/08/07 05:36:29;;;;;;;;;;;;;;;14.73;93.23;100374.88;4902427;29;20132;-79
2023/08/07 05:38:55;;;;;;;5.72;1.83;;;;;;;14.72;92.56;100370.59;4908935;29;19915;-80
2023/08/07 05:41:21;;;;;;;4.13;2.17;;;;;;;14.73;93.22;100373.00;4887471;29;20417;-80
2023/08/07 05:43:47;;;;;;;;;;;;;;;14.81;93.76;100378.75;4895912;29;20047;-80
2023/08/07 05:46:12;;;;;;;4.50;1.77;;;;;;;14.76;93.09;100371.56;4909770;29;19946;-78
2023/08/07 05:48:38;;;;;;;;;;;;;;;14.80;91.95;100377.94;4917416;29;20117;-80
2023/08/07 05:51:04;;;;;;;4.95;1.73;;;;;;;14.83;91.27;100377.31;4910144;29;20003;-81
2023/08/07 05:53:29;;;;;;;;;;;;;;;14.84;90.98;100370.06;4921563;29;20084;-81
2023/08/07 05:55:55;;;;;;;4.82;1.85;;;;;;;14.83;90.90;100366.53;4901673;29;19915;-79
2023/08/07 05:58:21;;;;;;;13.05;3.22;;;;;;;14.85;91.59;100363.56;4910104;29;20482;-79
2023/08/07 06:00:47;;;;;;;;;;;;;;;14.88;92.20;100385.28;4927521;29;20020;-78
2023/08/07 06:03:13;;;;;;;8.90;2.67;;;;;;;14.88;91.42;100390.69;4892060;29;19934;-78
2023/08/07 06:05:38;;;;;;;;;;;;;;;14.93;92.05;100387.88;4898912;29;20047;-78
2023/08/07 06:08:05;;;;;;;5.20;1.67;;;;;;;14.92;91.11;100375.50;4922143;29;19922;-77
2023/08/07 06:10:31;;;;;;;8.13;2.58;;;;;;;15.00;90.05;100382.84;4893314;29;20423;-78
2023/08/07 06:12:57;;;;;;;;;;;;;;;15.05;89.97;100392.72;4903366;29;20502;-79
2023/08/07 06:15:22;;;;;;;7.15;1.70;;;;;;;15.13;89.43;100383.88;4905418;29;19926;-77
2023/08/07 06:17:48;;;;;;;;;;;;;;;15.25;90.17;100381.41;4880276;29;20059;-79
2023/08/07 06:20:15;;;;;;;7.57;2.03;;;;;;;15.29;89.11;100379.69;4906043;29;20344;-78
2023/08/07 06:22:41;;;;;;;6.70;1.90;;;;;;;15.31;89.82;100368.59;4895618;29;20068;-79
2023/08/07 06:25:08;;;;;;;;;;;;;;;15.38;90.09;100387.03;4933271;29;20020;-78
2023/08/07 06:27:34;;;;;;;7.97;2.45;;;;;;;15.38;88.26;100392.44;4899611;29;19945;-79
2023/08/07 06:30:01;;;;;;;;;;;;;;;15.37;89.19;100380.81;4896492;29;20483;-76
2023/08/07 06:32:27;;;;;;;8.52;2.15;;;;;;;15.38;90.15;100374.34;4917505;29;19915;-78
2023/08/07 06:34:53;;;;;;;;;;;;;;;15.37;88.79;100386.22;4909862;29;20075;-79
2023/08/07 06:37:19;;;;;;;8.18;1.80;;;;;;;15.39;87.80;100384.03;4915994;29;19922;-78
2023/08/07 06:39:46;;;;;;;7.50;1.75;;;;;;;15.44;86.15;100386.56;4900370;29;20051;-80
2023/08/07 06:42:12;;;;;;;9.35;2.33;;;;;;;15.49;86.08;100386.44;4884688;29;20032;-77
2023/08/07 06:44:42;;;;;;;6.97;2.20;;;;;;;15.51;85.82;100386.94;4887471;29;20114;-81
2023/08/07 06:47:08;;;;;;;8.80;2.20;;;;;;;15.56;86.06;100392.19;4886960;29;20036;-78
2023/08/07 06:49:34;;;;;;;5.53;2.00;;;;;;;15.59;84.90;100381.91;4891909;29;20063;-79
2023/08/07 06:52:01;;;;;;;9.70;2.25;;;;;;;15.60;84.90;100383.47;4911110;29;20092;-77
2023/08/07 06:54:27;;;;;;;10.90;3.10;;;;;;;15.57;86.78;100393.78;4903771;29;20106;-76
2023/08/07 06:56:52;;;;;;;9.40;2.80;;;;;;;15.57;83.47;100384.88;4877776;29;20813;-78
2023/08/07 06:59:18;;;;;;;11.27;2.70;;;;;;;15.58;83.40;100391.91;4909445;29;20059;-75
2023/08/07 07:01:44;;;;;;;;;;;;;;;15.57;82.69;100385.69;4894796;29;20516;-78
2023/08/07 07:04:09;;;;;;;14.35;2.85;;;;;;;15.60;83.64;100399.69;4880406;29;19915;-76
2023/08/07 07:06:37;;;;;;;9.52;2.55;;;;;;;15.55;83.29;100397.91;4904817;29;20611;-77
2023/08/07 07:09:03;;;;;;;14.32;2.80;;;;;;;15.60;83.13;100399.69;4894386;29;20485;-77
2023/08/07 07:11:30;;;;;;;10.18;2.83;;;;;;;15.64;81.77;100408.75;4884376;29;20517;-79
2023/08/07 07:13:56;;;;;;;12.43;2.70;;;;;;;15.72;79.30;100399.91;4907406;29;20032;-78
2023/08/07 07:16:21;;;;;;;9.73;2.60;;;;;;;15.78;79.22;100406.75;4897775;29;20106;-77
2023/08/07 07:18:51;;;;;;;;;;;;;;;15.76;80.57;100427.88;4889782;29;20044;-79
2023/08/07 07:21:18;;;;;;;11.00;2.95;;;;;;;15.56;81.35;100413.78;4899009;29;19970;-79
2023/08/07 07:23:43;;;;;;;;;;;;;;;15.32;83.31;100418.75;4909664;29;20051;-79
2023/08/07 07:26:09;;;;;;;12.88;2.78;;;;;;;15.27;83.43;100418.88;4894168;29;19919;-79
2023/08/07 07:28:34;;;;;;;;;;;;;;;15.26;84.21;100419.97;4895809;29;20035;-77
2023/08/07 07:31:00;;;;;;;13.15;2.78;;;;;;;15.23;83.21;100415.19;4898610;29;20005;-80
2023/08/07 07:33:26;;;;;;;10.70;2.80;;;;;;;15.31;82.24;100414.47;4885691;29;20047;-80
2023/08/07 07:35:52;;;;;;;;;;;;;;;15.43;83.30;100417.38;4897733;29;20032;-79
2023/08/07 07:43:49;;;;;;;11.45;3.08;;;;;;;15.35;82.35;100431.59;4955517;28;20039;-79
2023/08/07 07:46:15;;;;;;;10.40;2.88;;;;;;;15.24;82.22;100436.47;4950912;28;20039;-79
2023/08/07 07:56:54;;;;;;;12.77;3.85;;;;;;;15.82;77.47;100423.94;5839068;23;20034;-77
2023/08/07 07:59:19;;;;;;;11.82;2.75;;;;;;;15.91;76.15;100424.75;5217184;23;20522;-78
2023/08/07 08:01:45;;;;;;;;;;;;;;;16.11;78.31;100436.88;4906829;29;20040;-79
2023/08/07 08:04:11;;;;;;;7.25;2.50;;;;;;;16.25;77.73;100434.06;4895102;29;19923;-77
2023/08/07 08:06:37;;;;;;;8.68;2.63;;;;;;;16.40;76.83;100430.91;4893143;29;20131;-75
2023/08/07 08:09:04;;;;;;;11.65;2.58;;;;;;;16.54;77.37;100434.28;4875788;29;20043;-78
2023/08/07 08:11:31;;;;;;;13.80;3.30;;;;;;;16.58;75.44;100437.91;4871462;29;20484;-76
2023/08/07 08:13:57;;;;;;;12.60;2.72;;;;;;;16.46;73.42;100435.06;4901979;29;20080;-76
2023/08/07 08:16:22;;;;;;;18.70;4.07;;;;;;;16.38;74.51;100442.03;4874218;29;20040;-79
2023/08/07 08:18:48;;;;;;;14.60;2.70;;;;;;;16.19;75.05;100449.63;4889320;29;20040;-80
2023/08/07 08:21:14;;;;;;;;;;;;;;;16.14;79.19;100460.59;4892177;29;20045;-78
2023/08/07 08:23:42;;;;;;;12.90;3.38;;;;;;;16.03;80.27;100478.97;4887518;29;20043;-79
2023/08/07 08:26:09;;;;;;;13.50;2.90;;;;;;;15.75;80.73;100472.19;4889674;29;20040;-80
2023/08/07 08:28:35;;;;;;;13.73;3.08;;;;;;;15.79;82.28;100481.25;4894538;29;20529;-77
2023/08/07 08:31:00;;;;;;;13.15;3.03;;;;;;;15.73;85.18;100477.09;4885437;29;20044;-74
2023/08/07 08:33:26;;;;;;;10.82;2.92;;;;;;;15.58;82.84;100483.66;4893106;29;20040;-77
2023/08/07 08:35:52;;;;;;;14.98;3.30;;;;;;;15.55;83.31;100492.38;4876844;29;20187;-79
2023/08/07 08:38:19;;;;;;;10.23;2.78;;;;;;;15.46;81.61;100491.53;4875360;29;20515;-80
2023/08/07 08:40:45;;;;;;;16.92;3.80;;;;;;;15.51;83.72;100486.81;4885794;29;20073;-76
2023/08/07 08:43:12;;;;;;;13.73;3.72;;;;;;;15.45;81.99;100490.72;4890474;29;20068;-77
2023/08/07 08:45:40;;;;;;;13.98;3.45;;;;;;;15.50;82.88;100477.09;4888784;29;20056;-76
2023/08/07 08:48:08;;;;;;;10.68;3.13;;;;;;;15.50;80.42;100487.09;4855322;29;20071;-77
2023/08/07 08:50:35;;;;;;;10.73;3.47;;;;;;;15.61;79.38;100501.13;4888671;29;20052;-74
2023/08/07 08:53:02;;;;;;;14.30;2.72;;;;;;;15.82;81.05;100500.31;4886305;29;20079;-77
2023/08/07 08:55:28;;;;;;;12.25;3.30;;;;;;;16.04;80.65;100496.75;4901571;29;20557;-79
2023/08/07 08:57:54;;;;;;;;;;;;;;;16.21;78.85;100497.94;4887620;29;20057;-76
2023/08/07 09:00:21;;;;;;;16.08;3.72;;;;;;;16.35;79.92;100501.34;4892451;29;19923;-77
2023/08/07 09:02:49;;;;;;;15.20;5.90;;;;;;;16.29;79.86;100502.56;4829271;23;2276248;-82
2023/08/07 09:05:16;;;;;;;14.98;4.70;;;;;;;16.19;79.07;100509.06;4900052;29;20062;-84
2023/08/07 09:07:46;;;;;;;12.60;3.78;;;;;;;16.17;78.98;100510.47;4906640;29;20035;-84
2023/08/07 09:10:13;;;;;;;14.60;3.28;;;;;;;16.17;75.90;100505.06;4892511;29;20039;-83
2023/08/07 09:12:52;;;;;;;13.07;3.50;;;;;;;16.16;73.27;100503.50;4898493;29;21172;-86
2023/08/07 09:15:19;;;;;;;9.68;3.03;;;;;;;16.23;70.95;100495.72;4896037;29;20401;-82
2023/08/07 09:17:47;;;;;;;13.52;3.17;;;;;;;16.49;72.63;100499.28;4896485;29;20411;-84
2023/08/07 09:20:14;;;;;;;8.75;2.55;;;;;;;16.68;70.17;100504.44;4927688;29;20043;-85
2023/08/07 09:22:41;;;;;;;14.20;2.85;;;;;;;16.81;70.65;100503.53;4894240;29;20707;-86
2023/08/07 09:25:09;;;;;;;16.00;3.03;;;;;;;16.78;67.73;100497.94;4923502;29;20043;-82
2023/08/07 09:27:37;;;;;;;9.27;2.88;;;;;;;16.99;68.71;100504.31;4902631;29;20727;-86
2023/08/07 09:30:06;;;;;;;12.68;2.78;;;;;;;17.08;66.12;100502.41;4914703;29;20032;-84
2023/08/07 09:32:33;;;;;;;11.25;3.28;;;;;;;17.22;65.71;100493.34;4929530;29;20039;-84
2023/08/07 09:35:02;;;;;;;9.75;2.35;;;;;;;17.45;67.10;100505.56;4900543;29;20035;-86
2023/08/07 09:37:28;;;;;;;11.73;2.65;;;;;;;17.60;62.89;100496.91;4907336;29;20040;-84
2023/08/07 09:39:54;;;;;;;10.48;2.50;;;;;;;17.60;63.61;100491.50;4910238;29;20036;-86
2023/08/07 09:42:19;;;;;;;;;;;;;;;17.71;62.73;100513.66;4899758;29;20035;-83
2023/08/07 09:44:48;;;;;;;7.25;2.10;;;;;;;17.90;65.69;100505.16;4913147;29;20003;-83
2023/08/07 09:47:16;;;;;;;12.60;3.10;;;;;;;17.95;62.20;100507.66;4916401;29;20091;-84
2023/08/07 09:49:43;;;;;;;12.70;2.25;;;;;;;18.02;63.46;100508.00;4906806;29;20044;-84
2023/08/07 09:52:13;;;;;;;7.90;2.25;;;;;;;18.04;63.39;100508.44;4903442;29;20044;-86
2023/08/07 09:54:39;;;;;;;9.32;2.88;;;;;;;17.92;62.09;100509.13;4928259;29;20067;-83
2023/08/07 09:57:06;;;;;;;9.90;2.45;;;;;;;17.89;62.73;100520.63;4921366;29;20032;-86
2023/08/07 09:59:33;;;;;;;11.55;2.70;;;;;;;17.81;64.72;100517.91;4913064;29;20032;-86
2023/08/07 10:02:03;;;;;;;12.68;2.70;;;;;;;17.55;62.01;100529.59;4895762;29;20050;-86
2023/08/07 10:04:30;;;;;;;7.25;2.75;;;;;;;17.45;62.65;100519.88;4891836;29;20036;-86
2023/08/07 10:06:57;;;;;;;12.05;2.55;;;;;;;17.43;64.67;100518.63;4898274;29;20044;-83
2023/08/07 10:09:24;;;;;;;10.23;2.70;;;;;;;17.34;63.86;100529.47;4911051;29;20051;-86
2023/08/07 10:11:51;;;;;;;11.48;2.38;;;;;;;17.46;64.25;100531.50;4931769;29;20581;-86
2023/08/07 10:14:17;;;;;;;13.38;2.97;;;;;;;17.49;63.76;100532.78;4908269;29;20092;-86
2023/08/07 10:16:45;;;;;;;13.27;2.83;;;;;;;17.55;66.15;100526.09;4931561;29;21639;-85
2023/08/07 10:19:11;;;;;;;8.30;2.22;;;;;;;17.72;67.04;100524.16;4898713;29;20523;-84
2023/08/07 10:21:42;;;;;;;9.73;2.97;;;;;;;17.92;69.15;100532.72;4934923;29;20115;-86
2023/08/07 10:24:10;;;;;;;11.07;3.25;;;;;;;18.09;63.52;100527.25;4919702;29;20103;-83
2023/08/07 10:26:45;;;;;;;12.02;3.05;;;;;;;18.08;61.55;100530.25;4916404;29;20048;-84
2023/08/07 10:29:16;;;;;;;11.32;3.03;;;;;;;18.30;63.98;100526.53;4915340;29;20579;-84
2023/08/07 10:31:43;;;;;;;;;;;;;;;18.51;62.42;100530.06;4930500;29;20095;-84
2023/08/07 10:34:09;;;;;;;9.55;2.67;;;;;;;18.35;60.84;100515.47;4911945;29;19949;-84
2023/08/07 10:36:36;;;;;;;12.85;3.03;;;;;;;18.16;60.26;100502.34;4887064;29;20043;-84
2023/08/07 10:39:22;;;;;;;9.50;2.20;;;;;;;17.95;63.72;100540.19;4930208;29;20524;-85
2023/08/07 10:42:06;;;;;;;13.57;2.97;;;;;;;17.37;59.39;100518.00;4932629;29;20054;-83
2023/08/07 10:44:32;;;;;;;16.08;2.97;;;;;;;17.10;59.18;100543.47;4915355;29;20040;-84
2023/08/07 10:46:58;;;;;;;9.95;2.28;;;;;;;16.85;63.11;100530.72;4894369;29;20042;-85
2023/08/07 10:49:37;;;;;;;8.90;2.35;;;;;;;16.70;63.54;100536.59;4913362;29;20147;-82
2023/08/07 10:52:11;;;;;;;6.45;2.30;;;;;;;16.74;67.88;100540.25;4894857;29;20039;-84
2023/08/07 10:54:44;;;;;;;13.27;2.80;;;;;;;16.64;64.68;100547.50;4914691;29;20504;-83
2023/08/07 10:57:14;;;;;;;10.18;2.50;;;;;;;16.88;62.92;100546.31;4899940;29;20039;-84
2023/08/07 10:59:50;;;;;;;9.75;2.80;;;;;;;17.19;62.69;100552.38;4913670;29;20042;-84
2023/08/07 11:02:29;;;;;;;10.48;2.25;;;;;;;17.69;63.08;100541.03;4915698;29;20231;-84
2023/08/07 11:04:56;;;;;;;5.90;1.83;;;;;;;18.08;62.94;100541.88;4913842;29;20039;-84
2023/08/07 11:07:28;;;;;;;11.85;2.22;;;;;;;18.09;63.34;100535.38;4931142;29;20050;-84
2023/08/07 11:09:55;;;;;;;7.22;1.85;;;;;;;18.11;67.57;100538.56;4912500;29;20032;-82
2023/08/07 11:12:25;;;;;;;12.02;2.42;;;;;;;18.18;64.60;100532.63;4919934;29;20031;-84
2023/08/07 11:14:52;;;;;;;8.27;2.08;;;;;;;18.22;60.95;100515.41;4904128;29;20498;-85
2023/08/07 11:17:18;;;;;;;12.43;2.50;;;;;;;18.24;65.53;100521.28;4921053;29;20094;-84
2023/08/07 11:19:47;;;;;;;9.02;2.60;;;;;;;18.60;65.10;100538.94;4899159;29;20036;-86
2023/08/07 11:22:14;;;;;;;8.38;2.20;;;;;;;18.65;60.08;100570.50;4911686;29;20040;-85
2023/08/07 11:24:40;;;;;;;10.52;2.70;;;;;;;18.27;59.38;100547.72;4901922;29;20131;-84
2023/08/07 11:27:08;;;;;;;7.47;2.20;;;;;;;17.96;60.10;100566.19;4902467;29;20123;-84
2023/08/07 11:29:39;;;;;;;8.93;3.00;;;;;;;17.72;63.78;100581.03;4915069;29;20106;-86
2023/08/07 11:32:06;;;;;;;12.02;3.00;;;;;;;17.10;66.93;100584.06;4903782;29;20035;-83
2023/08/07 11:34:32;;;;;;;6.32;1.98;;;;;;;16.65;66.91;100578.84;4910216;29;20043;-83
2023/08/07 11:36:58;;;;;;;6.93;2.10;;;;;;;16.43;68.12;100578.94;4910071;29;20036;-85
2023/08/07 11:39:24;;;;;;;8.63;1.83;;;;;;;16.54;69.69;100592.97;4928998;29;20047;-83
2023/08/07 11:41:52;;;;;;;6.68;1.67;;;;;;;16.72;70.06;100585.72;4928971;29;20528;-83
2023/08/07 11:44:18;;;;;;;10.07;2.30;;;;;;;16.96;73.21;100580.69;4913066;29;20043;-86
2023/08/07 11:46:44;;;;;;;8.48;2.53;;;;;;;16.94;67.15;100577.53;4901465;29;20490;-85
2023/08/07 11:49:11;;;;;;;7.10;2.10;;;;;;;16.87;66.98;100571.78;4931372;29;20031;-88
2023/08/07 11:51:37;;;;;;;12.07;2.83;;;;;;;16.94;65.93;100577.53;4911863;29;20031;-89
2023/08/07 11:54:03;;;;;;;8.30;2.17;;;;;;;17.12;65.60;100567.50;4917753;29;20034;-87
2023/08/07 11:56:29;;;;;;;7.68;2.35;;;;;;;17.44;72.81;100575.16;4933242;29;20122;-86